Petrolina Ocean — 5BQR2 — position and weather

sailwx.info

Track history (hours):
 
Tides and Currents Weather Stations Pressure Air Temp Water Temp Dewpoint Dewpoint Depression Visibility Wind Speed Wind Dir Waves Ship Positions

Petrolina Ocean

Last reported at 2018-Jun-25 17:06 UTC. Time now 2018-Jun-25 17:31 UTC.
Position N 32°56' E 034°50'.

Length 113 m; draft 7.2 m.

Type: Tanker. MMSI: 212422000.

Date/timePositionNaut miles runAvg speedWind from/ knotsBaromVisibWave heightAir tempDewpointWater temp
2018-Jun-25 17:06N 32°56' E 034°50'112.5
2018-Jun-25 16:59N 32°56' E 034°51'612.3
2018-Jun-25 16:30N 32°53' E 034°57'3 0.1
2018-Jun-23 20:54N 32°51' E 035°00'4 9.8
2018-Jun-23 20:30N 32°53' E 034°57'713.6
2018-Jun-23 19:58N 32°54' E 034°48'  
2018-Jun-21 04:26N 32°56' E 034°49'612.3
2018-Jun-21 03:57N 32°54' E 034°56'510.3
2018-Jun-21 03:27N 32°51' E 035°00'0 0.0
2018-Jun-19 21:38N 32°51' E 035°00'2 8.0
2018-Jun-19 21:20N 32°53' E 034°58'1 1.7
2018-Jun-19 21:00N 32°53' E 034°58'0 0.8
2018-Jun-19 20:30N 32°53' E 034°58'1 2.3
2018-Jun-19 20:00N 32°53' E 034°56'610.9
2018-Jun-19 19:29N 32°54' E 034°49'712.9
2018-Jun-19 18:57N 32°55' E 034°41'7 0.2
2018-Jun-18 00:49N 32°56' E 034°50'511.9
2018-Jun-18 00:25N 32°54' E 034°55'611.8
2018-Jun-17 23:57N 32°51' E 035°00'2 0.1
2018-Jun-16 18:43N 32°49' E 035°01'1 3.9
2018-Jun-16 18:25N 32°51' E 035°01'1 1.3
2018-Jun-16 17:42N 32°51' E 034°60'2 7.1
2018-Jun-16 17:30N 32°52' E 034°59'1 3.0
2018-Jun-16 17:00N 32°53' E 034°58'1 1.7
2018-Jun-16 16:30N 32°53' E 034°58'0 0.5
2018-Jun-16 16:00N 32°53' E 034°58'0 0.3
2018-Jun-16 15:30N 32°53' E 034°58'4 8.1
2018-Jun-16 15:00N 32°54' E 034°53'713.1
2018-Jun-16 14:30N 32°55' E 034°46'613.0
2018-Jun-16 14:00N 32°56' E 034°38'612.8
2018-Jun-16 13:31N 32°57' E 034°30'713.4
2018-Jun-16 13:00N 33°03' E 034°26'713.3
2018-Jun-16 12:30N 33°08' E 034°22'713.3
2018-Jun-16 12:00N 33°14' E 034°19'713.3
2018-Jun-16 11:30N 33°20' E 034°15'713.3
2018-Jun-16 11:00N 33°26' E 034°11'713.5
2018-Jun-16 10:30N 33°32' E 034°08'6913.4
2018-Jun-16 05:23N 34°32' E 033°28'13 2.5
2018-Jun-16 00:12N 34°43' E 033°19'0 0.0
2018-Jun-16 00:00N 34°43' E 033°19'0 0.0
2018-Jun-15 23:30N 34°43' E 033°19'0 0.0
2018-Jun-15 22:55N 34°43' E 033°19'0 0.0
2018-Jun-15 22:19N 34°43' E 033°19'0 0.0
2018-Jun-15 22:01N 34°43' E 033°19'0 0.0
2018-Jun-15 21:16N 34°43' E 033°19'0 0.0
2018-Jun-15 20:52N 34°43' E 033°19'0 0.0
2018-Jun-15 20:28N 34°43' E 033°19'0 0.0
2018-Jun-15 19:49N 34°43' E 033°19'0 0.0
2018-Jun-15 19:28N 34°43' E 033°19'0 0.0
2018-Jun-15 18:59N 34°43' E 033°19'0 0.0
2018-Jun-15 18:26N 34°43' E 033°19'0 0.0
2018-Jun-15 17:59N 34°43' E 033°19'0 0.0
2018-Jun-15 17:29N 34°43' E 033°19'  
Track history (hours):
 
Tides and Currents Weather Stations Pressure Air Temp Water Temp Dewpoint Dewpoint Depression Visibility Wind Speed Wind Dir Waves Ship Positions

Petrolina Ocean

Last reported at 2018-Jun-25 17:06 UTC. Time now 2018-Jun-25 17:31 UTC.
Position N 32°56' E 034°50'.

Length 113 m; draft 7.2 m.

Type: Tanker. MMSI: 212422000.

Date/timePositionNaut miles runAvg speedWind from/ knotsBaromVisibWave heightAir tempDewpointWater temp
2018-Jun-25 17:06N 32°56' E 034°50'112.5
2018-Jun-25 16:59N 32°56' E 034°51'612.3
2018-Jun-25 16:30N 32°53' E 034°57'3 0.1
2018-Jun-23 20:54N 32°51' E 035°00'4 9.8
2018-Jun-23 20:30N 32°53' E 034°57'713.6
2018-Jun-23 19:58N 32°54' E 034°48'  
2018-Jun-21 04:26N 32°56' E 034°49'612.3
2018-Jun-21 03:57N 32°54' E 034°56'510.3
2018-Jun-21 03:27N 32°51' E 035°00'0 0.0
2018-Jun-19 21:38N 32°51' E 035°00'2 8.0
2018-Jun-19 21:20N 32°53' E 034°58'1 1.7
2018-Jun-19 21:00N 32°53' E 034°58'0 0.8
2018-Jun-19 20:30N 32°53' E 034°58'1 2.3
2018-Jun-19 20:00N 32°53' E 034°56'610.9
2018-Jun-19 19:29N 32°54' E 034°49'712.9
2018-Jun-19 18:57N 32°55' E 034°41'7 0.2
2018-Jun-18 00:49N 32°56' E 034°50'511.9
2018-Jun-18 00:25N 32°54' E 034°55'611.8
2018-Jun-17 23:57N 32°51' E 035°00'2 0.1
2018-Jun-16 18:43N 32°49' E 035°01'1 3.9
2018-Jun-16 18:25N 32°51' E 035°01'1 1.3
2018-Jun-16 17:42N 32°51' E 034°60'2 7.1
2018-Jun-16 17:30N 32°52' E 034°59'1 3.0
2018-Jun-16 17:00N 32°53' E 034°58'1 1.7
2018-Jun-16 16:30N 32°53' E 034°58'0 0.5
2018-Jun-16 16:00N 32°53' E 034°58'0 0.3
2018-Jun-16 15:30N 32°53' E 034°58'4 8.1
2018-Jun-16 15:00N 32°54' E 034°53'713.1
2018-Jun-16 14:30N 32°55' E 034°46'613.0
2018-Jun-16 14:00N 32°56' E 034°38'612.8
2018-Jun-16 13:31N 32°57' E 034°30'713.4
2018-Jun-16 13:00N 33°03' E 034°26'713.3
2018-Jun-16 12:30N 33°08' E 034°22'713.3
2018-Jun-16 12:00N 33°14' E 034°19'713.3
2018-Jun-16 11:30N 33°20' E 034°15'713.3
2018-Jun-16 11:00N 33°26' E 034°11'713.5
2018-Jun-16 10:30N 33°32' E 034°08'6913.4
2018-Jun-16 05:23N 34°32' E 033°28'13 2.5
2018-Jun-16 00:12N 34°43' E 033°19'0 0.0
2018-Jun-16 00:00N 34°43' E 033°19'0 0.0
2018-Jun-15 23:30N 34°43' E 033°19'0 0.0
2018-Jun-15 22:55N 34°43' E 033°19'0 0.0
2018-Jun-15 22:19N 34°43' E 033°19'0 0.0
2018-Jun-15 22:01N 34°43' E 033°19'0 0.0
2018-Jun-15 21:16N 34°43' E 033°19'0 0.0
2018-Jun-15 20:52N 34°43' E 033°19'0 0.0
2018-Jun-15 20:28N 34°43' E 033°19'0 0.0
2018-Jun-15 19:49N 34°43' E 033°19'0 0.0
2018-Jun-15 19:28N 34°43' E 033°19'0 0.0
2018-Jun-15 18:59N 34°43' E 033°19'0 0.0
2018-Jun-15 18:26N 34°43' E 033°19'0 0.0
2018-Jun-15 17:59N 34°43' E 033°19'0 0.0
2018-Jun-15 17:29N 34°43' E 033°19'  

Dump ship's entire track history